createdAt,value
2019-04-01T15:45:56.235Z,101441.48
2019-04-01T15:48:47.682Z,101437.83
2019-04-01T15:51:39.728Z,101433.92
2019-04-01T15:54:32.475Z,101426.88
2019-04-01T15:57:24.289Z,101430.88
2019-04-01T16:00:19.501Z,101420.28
2019-04-01T16:03:11.106Z,101422.54
2019-04-01T16:06:03.174Z,101414.38
2019-04-01T16:08:55.044Z,101416.86
2019-04-01T16:11:47.466Z,101404.46
2019-04-01T16:14:40.235Z,101402.16
2019-04-01T16:17:33.116Z,101402.50
2019-04-01T16:20:26.209Z,101397.06
2019-04-01T16:23:19.155Z,101398.03
2019-04-01T16:26:11.794Z,101392.14
2019-04-01T16:29:03.392Z,101394.59
2019-04-01T16:31:55.557Z,101388.44
2019-04-01T16:34:47.895Z,101381.05
2019-04-01T16:37:40.109Z,101385.30
2019-04-01T16:40:31.540Z,101374.84
2019-04-01T16:43:23.083Z,101374.53
2019-04-01T16:46:14.672Z,101371.30
2019-04-01T16:49:07.544Z,101370.95
2019-04-01T16:52:00.250Z,101366.31
2019-04-01T16:55:12.298Z,101364.31
2019-04-01T16:58:05.038Z,101360.82
2019-04-01T17:00:56.397Z,101356.86
2019-04-01T17:03:48.121Z,101362.00
2019-04-01T17:06:40.474Z,101361.06
2019-04-01T17:09:32.141Z,101360.22
2019-04-01T17:12:23.798Z,101358.16
2019-04-01T17:15:15.237Z,101358.84
2019-04-01T17:18:07.014Z,101357.19
2019-04-01T17:20:58.482Z,101361.63
2019-04-01T17:23:50.392Z,101359.28
2019-04-01T17:27:03.387Z,101351.77
2019-04-01T17:29:55.538Z,101350.24
2019-04-01T17:32:46.833Z,101350.86
2019-04-01T17:35:38.485Z,101348.14
2019-04-01T17:38:30.706Z,101346.13
2019-04-01T17:41:22.370Z,101341.77
2019-04-01T17:44:14.228Z,101341.52
2019-04-01T17:47:06.932Z,101334.16
2019-04-01T17:49:59.372Z,101337.12
2019-04-01T17:52:51.711Z,101334.43
2019-04-01T17:55:45.765Z,101333.52
2019-04-01T17:58:37.395Z,101333.44
2019-04-01T18:01:29.034Z,101333.04
2019-04-01T18:04:21.463Z,101330.41
2019-04-01T18:07:13.924Z,101328.09
2019-04-01T18:10:06.180Z,101328.14
2019-04-01T18:12:58.190Z,101329.95
2019-04-01T18:15:49.877Z,101334.48
2019-04-01T18:18:41.358Z,101334.13
2019-04-01T18:21:32.944Z,101328.30
2019-04-01T18:24:24.583Z,101325.95
2019-04-01T18:27:16.153Z,101327.97
2019-04-01T18:30:09.390Z,101324.78
2019-04-01T18:33:01.043Z,101322.25
2019-04-01T18:35:54.256Z,101325.70
2019-04-01T18:38:46.497Z,101327.06
2019-04-01T18:41:38.428Z,101328.84
2019-04-01T18:44:30.155Z,101327.78
2019-04-01T18:47:21.861Z,101325.61
2019-04-01T18:50:14.269Z,101328.17
2019-04-01T18:53:07.361Z,101324.21
2019-04-01T18:56:00.212Z,101324.82
2019-04-01T18:58:53.148Z,101325.75
2019-04-01T19:01:45.779Z,101327.92
2019-04-01T19:04:37.402Z,101324.83
2019-04-01T19:07:29.173Z,101324.34
2019-04-01T19:10:21.011Z,101326.92
2019-04-01T19:13:13.145Z,101326.30
2019-04-01T19:16:05.897Z,101323.55
2019-04-01T19:18:58.877Z,101322.22
2019-04-01T19:21:50.568Z,101319.38
2019-04-01T19:24:42.192Z,101322.58
2019-04-01T19:27:33.882Z,101322.19
2019-04-01T19:30:25.547Z,101324.58
2019-04-01T19:33:17.257Z,101326.01
2019-04-01T19:36:08.837Z,101328.20
2019-04-01T19:39:00.787Z,101330.89
2019-04-01T19:41:53.787Z,101324.16
2019-04-01T19:44:45.513Z,101323.94
2019-04-01T19:47:37.267Z,101321.72
2019-04-01T19:50:29.088Z,101320.50
2019-04-01T19:53:20.914Z,101316.67
2019-04-01T19:56:12.752Z,101317.38
2019-04-01T19:59:04.742Z,101315.85
2019-04-01T20:01:56.364Z,101314.53
2019-04-01T20:04:49.142Z,101312.73
2019-04-01T20:07:41.080Z,101317.30
2019-04-01T20:10:32.566Z,101318.18
2019-04-01T20:13:24.847Z,101309.16
2019-04-01T20:16:16.426Z,101312.23
2019-04-01T20:19:08.251Z,101305.38
2019-04-01T20:21:59.930Z,101304.55
2019-04-01T20:24:51.594Z,101305.65
2019-04-01T20:27:43.226Z,101301.77
2019-04-01T20:30:37.963Z,101297.52
2019-04-01T20:33:31.952Z,101302.47
2019-04-01T20:36:28.778Z,101297.58
2019-04-01T20:39:16.518Z,101292.77
2019-04-01T20:42:08.238Z,101290.19
2019-04-01T20:45:00.259Z,101286.53
2019-04-01T20:47:51.621Z,101282.83
2019-04-01T20:50:43.235Z,101273.44
2019-04-01T20:53:34.670Z,101275.59
2019-04-01T20:56:26.942Z,101276.27
2019-04-01T20:59:18.431Z,101268.56
2019-04-01T21:02:09.773Z,101266.16
2019-04-01T21:05:01.975Z,101261.35
2019-04-01T21:07:53.467Z,101255.56
2019-04-01T21:10:45.000Z,101257.97
2019-04-01T21:13:36.415Z,101258.45
2019-04-01T21:16:28.101Z,101258.16
2019-04-01T21:19:19.918Z,101251.97
2019-04-01T21:22:11.490Z,101247.48
2019-04-01T21:25:02.942Z,101250.97
2019-04-01T21:27:54.817Z,101240.52
2019-04-01T21:30:46.361Z,101238.27
2019-04-01T21:33:37.872Z,101238.43
2019-04-01T21:36:29.616Z,101234.42
2019-04-01T21:39:21.312Z,101229.33
2019-04-01T21:42:12.857Z,101227.01
2019-04-01T21:45:06.018Z,101224.81
2019-04-01T21:47:57.565Z,101219.67
